Time;durP1;ratioP1;P1;durP2;ratioP2;P2;SDS_P1;SDS_P2;PMS_P1;PMS_P2;Temp;Humidity;BMP_temperature;BMP_pressure;BME280_temperature;BME280_humidity;BME280_pressure;Samples;Min_cycle;Max_cycle;Signal;HPM_P1;HPM_P2
2022/01/10 00:01:01;;;;;;;53.03;10.07;;;;;;;1.75;100.00;100909.03;4926801;28;20114;-71
2022/01/10 00:03:27;;;;;;;48.00;10.07;;;;;;;1.77;100.00;100912.38;4919122;28;20081;-72
2022/01/10 00:05:52;;;;;;;48.80;10.38;;;;;;;1.77;100.00;100907.91;4913585;28;20069;-72
2022/01/10 00:08:18;;;;;;;39.47;9.50;;;;;;;1.67;100.00;100913.28;4926799;28;20093;-72
2022/01/10 00:10:44;;;;;;;36.97;10.30;;;;;;;1.67;100.00;100915.94;4909882;28;20058;-72
2022/01/10 00:13:10;;;;;;;51.42;10.75;;;;;;;1.71;100.00;100918.31;4923845;28;20050;-71
2022/01/10 00:15:35;;;;;;;56.60;10.82;;;;;;;1.70;100.00;100927.28;4920959;28;20078;-71
2022/01/10 00:18:01;;;;;;;42.35;10.05;;;;;;;1.62;100.00;100934.19;4915880;28;20047;-71
2022/01/10 00:20:27;;;;;;;51.47;9.77;;;;;;;1.57;100.00;100940.91;4924218;28;20090;-71
2022/01/10 00:22:52;;;;;;;40.00;9.63;;;;;;;1.52;100.00;100938.72;4908247;28;20058;-71
2022/01/10 00:25:20;;;;;;;47.90;10.50;;;;;;;1.50;100.00;100935.38;4924860;28;20561;-71
2022/01/10 00:27:47;;;;;;;47.63;10.20;;;;;;;1.52;100.00;100948.50;4906338;28;20038;-72
2022/01/10 00:30:13;;;;;;;43.72;9.95;;;;;;;1.49;100.00;100947.00;4913855;28;20050;-72
2022/01/10 00:32:41;;;;;;;41.53;10.93;;;;;;;1.58;100.00;100948.75;4920874;28;20035;-72
2022/01/10 00:35:07;;;;;;;51.83;10.60;;;;;;;1.57;100.00;100954.19;4907025;28;20108;-72
2022/01/10 00:37:34;;;;;;;37.88;10.85;;;;;;;1.54;100.00;100957.97;4940109;28;20034;-72
2022/01/10 00:40:00;;;;;;;53.17;10.98;;;;;;;1.47;100.00;100967.53;4920764;28;20050;-72
2022/01/10 00:42:25;;;;;;;44.78;11.50;;;;;;;1.43;100.00;100968.81;4916210;28;20046;-72
2022/01/10 00:44:51;;;;;;;55.95;11.70;;;;;;;1.39;100.00;100973.59;4924973;28;20030;-72
2022/01/10 00:47:17;;;;;;;48.90;12.40;;;;;;;1.48;100.00;100976.34;4911969;28;20213;-72
2022/01/10 00:49:43;;;;;;;41.40;12.98;;;;;;;1.45;100.00;100977.47;4923959;28;20109;-72
2022/01/10 00:52:08;;;;;;;41.30;12.07;;;;;;;1.39;100.00;100981.56;4918898;28;20060;-72
2022/01/10 00:54:34;;;;;;;53.45;12.48;;;;;;;1.35;100.00;100990.81;4913798;28;20526;-72
2022/01/10 00:57:00;;;;;;;46.33;12.00;;;;;;;1.32;100.00;101000.88;4924468;28;20410;-72
2022/01/10 00:59:25;;;;;;;43.03;12.63;;;;;;;1.25;100.00;101002.47;4910785;28;20050;-72
2022/01/10 01:01:50;;;;;;;37.20;11.95;;;;;;;1.14;100.00;101004.34;4926419;28;20043;-72
2022/01/10 01:04:16;;;;;;;46.13;12.65;;;;;;;1.09;100.00;101003.97;4917933;28;20057;-72
2022/01/10 01:06:43;;;;;;;49.08;12.63;;;;;;;1.04;100.00;101008.84;4919925;28;20043;-71
2022/01/10 01:09:12;;;;;;;53.28;12.50;;;;;;;1.07;100.00;101008.56;4927079;28;20034;-71
2022/01/10 01:14:50;;;;;;;47.75;13.60;;;;;;;1.07;100.00;101023.66;4927436;28;20134;-72
2022/01/10 01:25:20;;;;;;;53.65;15.13;;;;;;;0.83;100.00;101037.41;4922130;28;20721;-71
2022/01/10 01:27:46;;;;;;;51.03;15.13;;;;;;;0.80;100.00;101053.63;4923126;28;20039;-72
2022/01/10 01:30:11;;;;;;;59.53;15.52;;;;;;;0.82;100.00;101051.66;4906379;28;20051;-72
2022/01/10 01:32:37;;;;;;;48.88;14.68;;;;;;;0.78;100.00;101066.19;4923075;28;20078;-72
2022/01/10 01:35:07;;;;;;;50.65;13.75;;;;;;;0.75;100.00;101062.00;4907719;28;20055;-72
2022/01/10 01:37:35;;;;;;;40.70;14.15;;;;;;;0.69;100.00;101067.88;4922656;28;20183;-72
2022/01/10 01:40:00;;;;;;;58.35;15.20;;;;;;;0.68;100.00;101072.34;4918512;28;20161;-72
2022/01/10 01:42:35;;;;;;;56.20;14.52;;;;;;;0.59;100.00;101069.72;4912548;28;23673;-69
2022/01/10 01:45:02;;;;;;;49.58;13.23;;;;;;;0.55;100.00;101077.13;4923209;28;20237;-72
2022/01/10 01:47:27;;;;;;;45.55;13.65;;;;;;;0.50;100.00;101082.03;4903811;28;20711;-72
2022/01/10 01:49:53;;;;;;;57.53;13.98;;;;;;;0.52;100.00;101092.47;4926763;28;20034;-72
2022/01/10 01:52:19;;;;;;;50.78;14.32;;;;;;;0.46;100.00;101099.19;4920607;28;21272;-71
2022/01/10 01:54:44;;;;;;;55.85;14.65;;;;;;;0.48;100.00;101099.88;4916821;28;20047;-71
2022/01/10 01:57:09;;;;;;;68.32;15.20;;;;;;;0.55;100.00;101100.13;4928050;28;20065;-70
2022/01/10 01:59:36;;;;;;;55.58;14.27;;;;;;;0.54;100.00;101101.97;4914134;28;20072;-70
2022/01/10 02:02:01;;;;;;;63.35;15.73;;;;;;;0.54;100.00;101101.97;4927117;28;20046;-70
2022/01/10 02:04:27;;;;;;;56.10;16.10;;;;;;;0.53;100.00;101108.25;4924982;28;20055;-70
2022/01/10 02:06:52;;;;;;;56.05;18.88;;;;;;;0.57;100.00;101117.59;4918468;28;20054;-70
2022/01/10 02:09:18;;;;;;;60.00;19.15;;;;;;;0.60;100.00;101125.25;4928957;28;20035;-70
2022/01/10 02:11:43;;;;;;;60.72;18.90;;;;;;;0.55;100.00;101124.00;4910502;28;20109;-70
2022/01/10 02:14:09;;;;;;;58.92;17.10;;;;;;;0.52;100.00;101135.72;4926322;28;20118;-70
2022/01/10 02:16:42;;;;;;;49.25;16.73;;;;;;;0.53;100.00;101136.53;4922206;28;20786;-70
2022/01/10 02:19:08;;;;;;;;;;;;;;;0.41;100.00;101134.03;4919208;28;20047;-69
2022/01/10 02:21:34;;;;;;;54.17;16.70;;;;;;;0.43;100.00;101141.88;4927931;28;19937;-69
2022/01/10 02:24:00;;;;;;;60.90;16.77;;;;;;;0.35;100.00;101147.88;4911985;28;23649;-69
2022/01/10 02:26:25;;;;;;;61.65;16.85;;;;;;;0.31;100.00;101158.88;4927155;28;20043;-70
2022/01/10 02:28:50;;;;;;;60.67;18.17;;;;;;;0.27;100.00;101158.31;4915307;28;20047;-70
2022/01/10 02:31:16;;;;;;;49.90;14.68;;;;;;;0.24;100.00;101156.75;4927373;28;20059;-70
2022/01/10 02:33:42;;;;;;;43.58;14.88;;;;;;;0.23;100.00;101163.03;4928205;28;20054;-70
2022/01/10 02:36:26;;;;;;;50.20;15.43;;;;;;;0.12;100.00;101163.16;4911321;28;20234;-70
2022/01/10 02:39:00;;;;;;;59.05;16.05;;;;;;;0.08;100.00;101168.88;4926014;28;20053;-70
2022/01/10 02:41:28;;;;;;;54.38;15.20;;;;;;;0.09;100.00;101176.69;4910206;28;20055;-69
2022/01/10 02:43:55;;;;;;;49.25;14.32;;;;;;;0.06;100.00;101174.31;4928106;28;21131;-69
2022/01/10 02:46:21;;;;;;;63.38;16.40;;;;;;;0.06;100.00;101169.00;4919166;28;20039;-69
2022/01/10 02:48:46;;;;;;;64.20;15.13;;;;;;;0.00;100.00;101182.81;4900508;28;20087;-69
2022/01/10 02:51:12;;;;;;;50.58;14.85;;;;;;;-0.06;100.00;101199.25;4926963;28;20035;-68
2022/01/10 02:53:37;;;;;;;58.63;16.48;;;;;;;-0.11;100.00;101196.97;4910980;28;20046;-69
2022/01/10 02:56:05;;;;;;;46.55;16.17;;;;;;;-0.12;100.00;101191.84;4928134;28;20035;-68
2022/01/10 02:58:30;;;;;;;53.15;16.50;;;;;;;-0.06;100.00;101199.25;4920540;28;20662;-69
2022/01/10 03:00:56;;;;;;;55.80;16.60;;;;;;;0.01;100.00;101199.53;4915726;28;20058;-68
2022/01/10 03:03:21;;;;;;;64.82;18.63;;;;;;;0.01;100.00;101210.97;4943338;28;20540;-69
2022/01/10 03:05:46;;;;;;;56.35;16.60;;;;;;;-0.01;100.00;101212.91;4913832;28;20526;-68
2022/01/10 03:08:12;;;;;;;58.72;15.63;;;;;;;-0.05;100.00;101208.84;4927607;28;20043;-68
2022/01/10 03:10:37;;;;;;;53.13;15.82;;;;;;;-0.16;100.00;101212.44;4921213;28;20051;-69
2022/01/10 03:13:03;;;;;;;52.85;15.70;;;;;;;-0.17;100.00;101218.72;4916475;28;20058;-68
2022/01/10 03:15:29;;;;;;;45.95;15.98;;;;;;;-0.21;100.00;101233.22;4928047;28;20420;-69
2022/01/10 03:17:54;;;;;;;58.40;17.55;;;;;;;-0.17;100.00;101239.06;4912486;28;20055;-69
2022/01/10 03:20:22;;;;;;;55.38;17.08;;;;;;;-0.05;100.00;101249.41;4927261;28;21048;-69
2022/01/10 03:22:47;;;;;;;70.18;20.00;;;;;;;0.02;100.00;101248.88;4920580;28;20051;-69
2022/01/10 03:25:12;;;;;;;63.25;19.42;;;;;;;0.13;100.00;101256.72;4914849;28;20061;-68
2022/01/10 03:27:38;;;;;;;64.40;18.73;;;;;;;0.20;100.00;101252.56;4926227;28;20133;-69
2022/01/10 03:30:04;;;;;;;63.80;21.00;;;;;;;0.18;100.00;101259.81;4907799;28;20055;-69
2022/01/10 03:32:29;;;;;;;77.15;22.27;;;;;;;0.23;100.00;101262.91;4926284;28;20039;-70
2022/01/10 03:34:57;;;;;;;73.38;22.63;;;;;;;0.23;100.00;101255.78;4916572;28;20445;-69
2022/01/10 03:37:24;;;;;;;71.35;22.80;;;;;;;0.29;100.00;101267.66;4917127;28;20058;-69
2022/01/10 03:39:49;;;;;;;77.80;22.80;;;;;;;0.33;100.00;101269.06;4926065;28;20486;-69
2022/01/10 03:42:14;;;;;;;83.50;24.33;;;;;;;0.36;100.00;101278.56;4909256;28;20054;-69
2022/01/10 03:44:40;;;;;;;74.80;24.83;;;;;;;0.32;100.00;101282.47;4926804;28;21069;-69
2022/01/10 03:47:06;;;;;;;84.60;26.23;;;;;;;0.35;100.00;101290.09;4915182;28;20085;-69
2022/01/10 03:49:31;;;;;;;82.28;27.67;;;;;;;0.31;100.00;101301.97;4924089;28;20129;-69
2022/01/10 03:51:57;;;;;;;87.72;28.85;;;;;;;0.38;100.00;101305.75;4926324;28;20653;-69
2022/01/10 03:54:22;;;;;;;94.90;30.52;;;;;;;0.44;100.00;101308.69;4909744;28;20047;-69
2022/01/10 03:56:48;;;;;;;112.72;34.53;;;;;;;0.47;100.00;101315.53;4926174;28;20033;-69
2022/01/10 03:59:13;;;;;;;101.65;33.47;;;;;;;0.50;100.00;101312.63;4908453;28;20049;-69
2022/01/10 04:01:39;;;;;;;99.07;34.10;;;;;;;0.50;100.00;101323.22;4926501;28;20058;-69
2022/01/10 04:04:06;;;;;;;100.80;31.65;;;;;;;0.46;100.00;101316.53;4926513;28;20026;-69
2022/01/10 04:06:31;;;;;;;103.18;33.90;;;;;;;0.45;100.00;101323.63;4896154;28;22785;-69
2022/01/10 04:08:57;;;;;;;106.00;36.05;;;;;;;0.46;100.00;101335.09;4925942;28;20042;-69
2022/01/10 04:11:22;;;;;;;95.55;34.28;;;;;;;0.39;100.00;101326.00;4909633;28;20050;-69
2022/01/10 04:13:48;;;;;;;103.50;33.13;;;;;;;0.31;100.00;101339.06;4925145;28;20026;-70
2022/01/10 04:16:13;;;;;;;101.10;34.72;;;;;;;0.32;100.00;101341.59;4927294;28;20494;-69
2022/01/10 04:18:39;;;;;;;97.38;34.42;;;;;;;0.29;100.00;101354.28;4910763;28;20153;-69
2022/01/10 04:21:04;;;;;;;108.60;35.58;;;;;;;0.27;100.00;101366.81;4926109;28;20078;-69
2022/01/10 04:23:30;;;;;;;120.43;34.80;;;;;;;0.28;100.00;101360.53;4910489;28;20073;-70
2022/01/10 04:25:56;;;;;;;109.22;36.25;;;;;;;0.32;100.00;101365.44;4925991;28;20030;-69
2022/01/10 04:28:21;;;;;;;102.03;34.80;;;;;;;0.32;100.00;101372.56;4925769;28;20461;-69
2022/01/10 04:30:47;;;;;;;102.80;35.30;;;;;;;0.32;100.00;101372.56;4911659;28;20047;-69
2022/01/10 04:33:17;;;;;;;111.85;35.13;;;;;;;0.27;100.00;101377.41;4924218;28;20968;-69
2022/01/10 04:35:43;;;;;;;99.35;33.40;;;;;;;0.22;100.00;101386.59;4910230;28;20195;-69
2022/01/10 04:38:09;;;;;;;111.07;35.63;;;;;;;0.20;100.00;101385.88;4924309;28;20201;-69
2022/01/10 04:40:35;;;;;;;119.88;36.50;;;;;;;0.18;100.00;101393.13;4925720;28;20042;-69
2022/01/10 04:43:00;;;;;;;124.00;39.47;;;;;;;0.21;100.00;101398.16;4910432;28;20058;-70
2022/01/10 04:45:26;;;;;;;108.75;37.42;;;;;;;0.20;100.00;101401.75;4925788;28;20481;-69
2022/01/10 04:47:51;;;;;;;114.68;36.65;;;;;;;0.16;100.00;101403.00;4911315;28;20059;-70
2022/01/10 04:52:49;;;;;;;132.27;40.85;;;;;;;0.09;100.00;101412.44;4921190;28;20105;-71
2022/01/10 04:55:16;;;;;;;113.93;39.00;;;;;;;0.10;100.00;101419.41;4912177;28;20054;-71
2022/01/10 04:57:42;;;;;;;108.15;36.58;;;;;;;0.08;100.00;101423.19;4927116;28;20086;-73
2022/01/10 05:00:12;;;;;;;117.00;38.35;;;;;;;-0.03;100.00;101434.69;4911026;28;20054;-72
2022/01/10 05:02:39;;;;;;;119.47;38.47;;;;;;;-0.05;100.00;101433.97;4924396;28;20035;-72
2022/01/10 05:05:05;;;;;;;121.95;41.47;;;;;;;-0.05;100.00;101439.28;4917885;28;20035;-71
2022/01/10 05:07:31;;;;;;;121.10;39.17;;;;;;;0.01;100.00;101444.06;4915394;28;20185;-71
2022/01/10 05:09:57;;;;;;;128.60;41.50;;;;;;;0.01;100.00;101454.66;4907192;28;20179;-71
2022/01/10 05:12:25;;;;;;;118.82;40.70;;;;;;;-0.07;100.00;101449.13;4912108;28;22848;-71
2022/01/10 05:14:50;;;;;;;134.73;40.30;;;;;;;-0.08;100.00;101458.91;4923392;28;20062;-71
2022/01/10 05:17:18;;;;;;;125.25;40.58;;;;;;;-0.12;100.00;101464.59;4918114;28;20050;-72
2022/01/10 05:19:44;;;;;;;130.95;41.20;;;;;;;-0.15;100.00;101470.13;4916628;28;20411;-72
2022/01/10 05:22:09;;;;;;;122.55;42.90;;;;;;;-0.16;100.00;101474.59;4923907;28;20145;-72
2022/01/10 05:24:35;;;;;;;138.95;41.63;;;;;;;-0.25;100.00;101481.50;4912527;28;20038;-72
2022/01/10 05:27:00;;;;;;;129.05;38.50;;;;;;;-0.29;100.00;101485.34;4928878;28;20039;-72
2022/01/10 05:29:25;;;;;;;140.32;41.90;;;;;;;-0.29;100.00;101490.66;4923850;28;20491;-72
2022/01/10 05:31:51;;;;;;;116.93;39.17;;;;;;;-0.27;100.00;101491.38;4920017;28;20050;-72
2022/01/10 05:34:16;;;;;;;121.15;38.50;;;;;;;-0.30;100.00;101496.91;4929537;28;20039;-73
2022/01/10 05:36:42;;;;;;;122.93;42.20;;;;;;;-0.34;100.00;101500.78;4915076;28;20121;-72
2022/01/10 05:39:07;;;;;;;116.78;38.25;;;;;;;-0.40;100.00;101497.81;4927445;28;20031;-72
2022/01/10 05:41:34;;;;;;;148.45;41.25;;;;;;;-0.43;100.00;101501.53;4922934;28;20121;-72
2022/01/10 05:43:59;;;;;;;138.25;40.85;;;;;;;-0.46;100.00;101504.41;4918052;28;20066;-72
2022/01/10 05:46:25;;;;;;;154.13;42.28;;;;;;;-0.49;100.00;101515.28;4926388;28;20062;-72
2022/01/10 05:48:53;;;;;;;125.00;40.83;;;;;;;-0.51;100.00;101517.19;4913967;28;20066;-73
2022/01/10 05:51:22;;;;;;;126.90;39.58;;;;;;;-0.53;100.00;101524.41;4925913;28;20031;-72
2022/01/10 05:53:48;;;;;;;120.75;37.63;;;;;;;-0.63;100.00;101531.41;4919502;28;22714;-72
2022/01/10 05:56:15;;;;;;;135.20;41.85;;;;;;;-0.55;100.00;101542.25;4918336;28;20585;-72
2022/01/10 05:58:40;;;;;;;148.52;43.97;;;;;;;-0.49;100.00;101545.22;4928464;28;20043;-72
2022/01/10 06:01:06;;;;;;;125.97;41.92;;;;;;;-0.52;100.00;101555.22;4912258;28;20057;-72
2022/01/10 06:03:31;;;;;;;131.45;44.10;;;;;;;-0.61;100.00;101563.91;4928045;28;20802;-72
2022/01/10 06:05:57;;;;;;;133.52;41.03;;;;;;;-0.66;100.00;101571.38;4911964;28;20047;-72
2022/01/10 06:08:23;;;;;;;114.13;40.15;;;;;;;-0.72;100.00;101580.63;4926576;28;20035;-72
2022/01/10 06:10:48;;;;;;;116.13;38.88;;;;;;;-0.77;100.00;101586.28;4927011;28;24041;-71
2022/01/10 06:13:14;;;;;;;128.18;39.22;;;;;;;-0.84;100.00;101587.72;4910212;28;20054;-72
2022/01/10 06:15:41;;;;;;;137.05;36.33;;;;;;;-0.95;100.00;101593.00;4926577;28;20043;-72
2022/01/10 06:18:07;;;;;;;101.95;35.63;;;;;;;-1.07;100.00;101593.97;4910927;28;20499;-72
2022/01/10 06:20:33;;;;;;;105.55;35.70;;;;;;;-1.16;100.00;101602.59;4925201;28;20155;-72
2022/01/10 06:22:58;;;;;;;111.28;36.25;;;;;;;-1.21;100.00;101608.25;4926569;28;20088;-72
2022/01/10 06:25:25;;;;;;;116.82;36.15;;;;;;;-1.25;100.00;101618.22;4913477;28;20054;-72
2022/01/10 06:27:51;;;;;;;93.13;34.85;;;;;;;-1.29;100.00;101616.78;4928037;28;20038;-72
2022/01/10 06:30:17;;;;;;;116.07;38.20;;;;;;;-1.30;100.00;101619.50;4912427;28;20047;-72
2022/01/10 06:32:42;;;;;;;117.50;38.40;;;;;;;-1.34;100.00;101626.00;4929177;28;20035;-72
2022/01/10 06:35:08;;;;;;;128.48;40.78;;;;;;;-1.26;100.00;101636.84;4927835;28;20066;-72
2022/01/10 06:37:34;;;;;;;131.80;41.17;;;;;;;-1.20;100.00;101646.94;4912520;28;20423;-71
2022/01/10 06:39:59;;;;;;;159.15;47.00;;;;;;;-1.15;100.00;101647.44;4927943;28;20043;-71
2022/01/10 06:42:25;;;;;;;138.50;42.05;;;;;;;-1.10;100.00;101652.38;4907516;28;20086;-71
2022/01/10 06:44:51;;;;;;;148.75;43.22;;;;;;;-1.11;100.00;101655.97;4924523;28;20169;-72
2022/01/10 06:47:17;;;;;;;161.13;44.47;;;;;;;-1.15;100.00;101659.81;4909845;28;20058;-70
2022/01/10 06:49:42;;;;;;;141.90;42.30;;;;;;;-1.24;100.00;101666.63;4927054;28;20059;-70
2022/01/10 06:52:08;;;;;;;138.82;44.05;;;;;;;-1.31;100.00;101670.69;4927601;28;20046;-70
2022/01/10 06:54:33;;;;;;;145.00;45.47;;;;;;;-1.29;100.00;101680.22;4912877;28;20051;-70
2022/01/10 06:56:59;;;;;;;164.02;49.30;;;;;;;-1.16;100.00;101684.56;4926001;28;20039;-72
2022/01/10 06:59:26;;;;;;;172.25;49.60;;;;;;;-1.05;100.00;101687.25;4926887;28;20026;-70
2022/01/10 07:01:52;;;;;;;155.68;47.95;;;;;;;-0.98;100.00;101694.59;4908787;28;20078;-70
2022/01/10 07:04:18;;;;;;;176.85;52.25;;;;;;;-0.91;100.00;101696.75;4925344;28;20042;-69
2022/01/10 07:06:43;;;;;;;174.23;52.35;;;;;;;-0.91;100.00;101705.56;4909938;28;20125;-70
2022/01/10 07:09:09;;;;;;;151.30;47.25;;;;;;;-0.98;100.00;101725.50;4928368;28;20053;-69
2022/01/10 07:11:34;;;;;;;150.60;49.28;;;;;;;-1.04;100.00;101725.97;4923491;28;20069;-70
2022/01/10 07:14:00;;;;;;;139.65;47.00;;;;;;;-1.11;100.00;101728.22;4915303;28;20062;-71
2022/01/10 07:16:25;;;;;;;143.27;49.53;;;;;;;-1.07;100.00;101742.03;4928328;28;20070;-70
2022/01/10 07:18:50;;;;;;;147.70;48.10;;;;;;;-1.08;100.00;101745.66;4911742;28;20617;-70
2022/01/10 07:21:16;;;;;;;139.73;46.33;;;;;;;-1.22;100.00;101750.16;4932763;28;20038;-70
2022/01/10 07:23:41;;;;;;;153.93;44.83;;;;;;;-1.33;100.00;101758.06;4933936;28;20035;-70
2022/01/10 07:26:07;;;;;;;133.60;42.78;;;;;;;-1.48;100.00;101761.81;4920629;28;20055;-70
2022/01/10 07:28:32;;;;;;;130.30;42.05;;;;;;;-1.57;100.00;101767.78;4916487;28;20077;-70
2022/01/10 07:30:58;;;;;;;147.48;45.70;;;;;;;-1.59;100.00;101767.03;4917692;28;20051;-69
2022/01/10 07:33:23;;;;;;;144.73;45.33;;;;;;;-1.50;100.00;101777.78;4926730;28;20043;-70
2022/01/10 07:35:49;;;;;;;152.50;47.70;;;;;;;-1.45;100.00;101777.44;4924861;28;20043;-69
2022/01/10 07:38:15;;;;;;;155.50;47.63;;;;;;;-1.46;100.00;101788.97;4912513;28;20050;-70
2022/01/10 07:40:40;;;;;;;136.80;43.45;;;;;;;-1.48;100.00;101790.88;4924509;28;20054;-69
2022/01/10 07:43:06;;;;;;;149.48;47.63;;;;;;;-1.46;100.00;101804.84;4912084;28;20090;-69
2022/01/10 07:45:31;;;;;;;152.68;47.88;;;;;;;-1.42;100.00;101795.72;4925243;28;20034;-70
2022/01/10 07:47:57;;;;;;;162.20;46.92;;;;;;;-1.39;100.00;101810.53;4920844;28;20078;-70
2022/01/10 07:50:22;;;;;;;150.48;47.88;;;;;;;-1.38;100.00;101813.03;4916182;28;20143;-69
2022/01/10 07:52:47;;;;;;;154.05;48.28;;;;;;;-1.36;100.00;101803.22;4927466;28;20035;-70
2022/01/10 07:55:13;;;;;;;169.80;51.40;;;;;;;-1.32;100.00;101804.66;4924551;28;20051;-69
2022/01/10 07:57:38;;;;;;;153.25;50.53;;;;;;;-1.13;100.00;101822.66;4937872;28;21017;-69
2022/01/10 08:00:05;;;;;;;192.52;55.53;;;;;;;-0.96;100.00;101824.91;4915196;28;20068;-70
2022/01/10 08:02:30;;;;;;;161.27;49.55;;;;;;;-0.87;100.00;101833.97;4927777;28;20058;-70
2022/01/10 08:04:56;;;;;;;140.95;45.97;;;;;;;-0.85;100.00;101841.78;4922050;28;20062;-70
2022/01/10 08:07:21;;;;;;;133.52;43.15;;;;;;;-0.83;100.00;101856.59;4906240;28;22597;-69
2022/01/10 08:09:47;;;;;;;135.63;45.20;;;;;;;-0.91;100.00;101842.22;4922078;28;20525;-69
2022/01/10 08:12:12;;;;;;;120.32;43.70;;;;;;;-0.93;100.00;101855.59;4902614;28;20039;-70
2022/01/10 08:14:38;;;;;;;144.35;46.13;;;;;;;-0.97;100.00;101854.13;4914033;28;20054;-70
2022/01/10 08:17:04;;;;;;;133.88;45.92;;;;;;;-0.94;100.00;101869.78;4923543;28;20035;-70
2022/01/10 08:19:31;;;;;;;135.90;44.85;;;;;;;-0.95;100.00;101862.78;4889269;28;20085;-70
2022/01/10 08:21:57;;;;;;;150.80;49.50;;;;;;;-0.98;100.00;101868.31;4924313;28;20031;-70
2022/01/10 08:24:23;;;;;;;159.07;52.22;;;;;;;-1.03;100.00;101871.28;4917334;28;20081;-70
2022/01/10 08:26:50;;;;;;;155.60;50.78;;;;;;;-1.02;100.00;101882.69;4911927;28;20145;-70
2022/01/10 08:29:16;;;;;;;173.40;55.10;;;;;;;-0.93;100.00;101891.78;4921624;28;20809;-70
2022/01/10 08:31:41;;;;;;;163.95;55.28;;;;;;;-0.80;100.00;101898.69;4907961;28;20446;-69
2022/01/10 08:34:07;;;;;;;162.60;55.40;;;;;;;-0.68;100.00;101893.44;4925186;28;20066;-70
2022/01/10 08:36:33;;;;;;;163.48;59.33;;;;;;;-0.54;100.00;101887.97;4921168;28;20113;-70
2022/01/10 08:38:59;;;;;;;163.77;56.30;;;;;;;-0.35;100.00;101893.56;4913426;28;20519;-70
2022/01/10 08:41:24;;;;;;;190.00;61.13;;;;;;;-0.07;100.00;101894.09;4908551;28;20041;-70
2022/01/10 08:43:50;;;;;;;138.02;56.05;;;;;;;0.30;100.00;101884.16;4908898;28;20055;-70
2022/01/10 08:46:15;;;;;;;152.93;58.65;;;;;;;0.54;100.00;101878.72;4926159;28;20042;-70
2022/01/10 08:48:41;;;;;;;155.65;60.42;;;;;;;0.88;100.00;101883.97;4919750;28;23749;-71
2022/01/10 08:51:07;;;;;;;161.95;58.33;;;;;;;1.08;100.00;101891.13;4916558;28;20054;-71
2022/01/10 08:53:32;;;;;;;163.27;60.13;;;;;;;1.21;100.00;101890.97;4924839;28;20034;-71
2022/01/10 08:55:58;;;;;;;157.82;60.08;;;;;;;1.43;100.00;101887.38;4908545;28;21084;-72
2022/01/10 08:58:26;;;;;;;149.63;58.78;;;;;;;1.47;100.00;101896.78;4924343;28;20031;-72
2022/01/10 09:00:52;;;;;;;153.82;61.55;;;;;;;1.69;100.00;101909.13;4919240;28;20043;-72
2022/01/10 09:03:18;;;;;;;148.18;58.35;;;;;;;1.85;100.00;101917.47;4914535;28;20058;-72
2022/01/10 09:05:43;;;;;;;143.52;56.05;;;;;;;1.95;100.00;101922.84;4924364;28;20030;-71
2022/01/10 09:08:09;;;;;;;134.15;55.28;;;;;;;2.09;100.00;101935.81;4923000;28;20503;-71
2022/01/10 09:10:35;;;;;;;114.78;52.50;;;;;;;2.21;100.00;101941.03;4923632;28;20062;-71
2022/01/10 09:13:00;;;;;;;110.93;52.60;;;;;;;2.38;100.00;101945.75;4910589;28;20073;-71
2022/01/10 09:15:26;;;;;;;123.95;52.35;;;;;;;2.55;100.00;101953.13;4924962;28;20063;-71
2022/01/10 09:17:52;;;;;;;96.65;47.90;;;;;;;2.77;100.00;101956.56;4925552;28;20045;-71
2022/01/10 09:20:18;;;;;;;90.18;45.67;;;;;;;2.87;100.00;101958.28;4910281;28;22674;-71
2022/01/10 09:22:43;;;;;;;90.88;44.58;;;;;;;3.09;100.00;101972.38;4907783;28;20133;-71
2022/01/10 09:25:09;;;;;;;95.13;44.28;;;;;;;3.02;100.00;101977.41;4911052;28;20057;-71
2022/01/10 09:27:34;;;;;;;75.97;41.70;;;;;;;3.22;100.00;101985.41;4923904;28;20039;-71
2022/01/10 09:30:00;;;;;;;84.50;43.00;;;;;;;3.26;100.00;101994.81;4924533;28;20043;-71
2022/01/10 09:32:25;;;;;;;68.60;39.83;;;;;;;3.17;100.00;101991.16;4911020;28;20054;-71
2022/01/10 09:34:50;;;;;;;69.32;38.97;;;;;;;3.20;100.00;101990.91;4924282;28;20065;-71
2022/01/10 09:37:16;;;;;;;60.95;37.13;;;;;;;3.29;100.00;101994.53;4910613;28;20050;-72
2022/01/10 09:39:42;;;;;;;68.93;37.58;;;;;;;3.36;100.00;101990.34;4926750;28;20045;-72
2022/01/10 09:42:09;;;;;;;71.50;36.97;;;;;;;3.53;100.00;102011.00;4908214;28;20042;-71
2022/01/10 09:44:35;;;;;;;64.68;37.38;;;;;;;3.68;100.00;102010.59;4909353;28;20047;-72
2022/01/10 09:47:01;;;;;;;65.22;36.72;;;;;;;4.03;100.00;102018.84;4923404;28;20141;-71
2022/01/10 09:49:27;;;;;;;69.80;33.92;;;;;;;4.06;100.00;102020.41;4908799;28;20089;-72
2022/01/10 09:51:52;;;;;;;60.80;36.05;;;;;;;4.34;100.00;102018.69;4924086;28;20883;-72
2022/01/10 09:54:17;;;;;;;59.70;34.08;;;;;;;4.39;100.00;102023.59;4924698;28;20400;-72
2022/01/10 09:56:47;;;;;;;55.90;34.47;;;;;;;4.58;100.00;102018.22;4917378;28;20066;-71
2022/01/10 09:59:13;;;;;;;51.72;32.03;;;;;;;4.74;100.00;102036.31;4925786;28;20117;-71
2022/01/10 10:01:38;;;;;;;52.70;30.60;;;;;;;4.80;100.00;102049.03;4892786;28;20051;-71
2022/01/10 10:04:04;;;;;;;54.88;30.88;;;;;;;4.98;100.00;102049.13;4923570;28;20424;-71
2022/01/10 10:06:31;;;;;;;44.70;29.48;;;;;;;5.07;100.00;102063.44;4922277;28;20031;-71
2022/01/10 10:09:06;;;;;;;46.75;28.50;;;;;;;5.24;100.00;102070.69;4914762;28;20058;-71
2022/01/10 10:11:38;;;;;;;44.25;25.70;;;;;;;5.32;100.00;102078.78;4925910;28;20188;-71
2022/01/10 10:14:05;;;;;;;40.90;25.98;;;;;;;5.66;100.00;102062.97;4913084;28;20507;-72
2022/01/10 10:16:31;;;;;;;43.40;26.95;;;;;;;5.77;100.00;102064.59;4926026;28;20499;-71
2022/01/10 10:18:58;;;;;;;45.00;23.85;;;;;;;5.95;100.00;102075.34;4924175;28;20054;-72
2022/01/10 10:21:23;;;;;;;36.38;25.23;;;;;;;6.23;100.00;102073.41;4901332;28;20122;-72
2022/01/10 10:23:50;;;;;;;49.92;27.10;;;;;;;6.41;100.00;102079.59;4927866;28;20078;-73
2022/01/10 10:26:24;;;;;;;44.08;24.67;;;;;;;6.76;100.00;102075.16;4910944;28;20078;-72
2022/01/10 10:28:51;;;;;;;46.75;23.08;;;;;;;6.76;100.00;102072.47;4926980;28;20065;-72
2022/01/10 10:31:27;;;;;;;36.92;24.33;;;;;;;6.98;100.00;102071.09;4919346;28;20043;-74
2022/01/10 10:33:54;;;;;;;32.85;23.08;;;;;;;7.11;100.00;102070.66;4941730;28;20259;-73
2022/01/10 10:36:20;;;;;;;35.55;22.77;;;;;;;7.05;100.00;102071.28;4926758;28;20039;-73
2022/01/10 10:38:45;;;;;;;37.60;21.50;;;;;;;7.13;100.00;102087.44;4896184;28;20102;-73
2022/01/10 10:41:12;;;;;;;37.53;22.85;;;;;;;7.23;100.00;102090.84;4928234;28;20063;-71
2022/01/10 10:43:40;;;;;;;32.65;22.17;;;;;;;7.37;100.00;102090.22;4908262;28;20050;-71
2022/01/10 10:46:16;;;;;;;35.72;20.70;;;;;;;7.44;100.00;102089.56;4922222;28;20027;-71
2022/01/10 10:48:44;;;;;;;38.50;22.63;;;;;;;7.84;100.00;102102.28;4924329;28;20158;-73
2022/01/10 10:51:10;;;;;;;39.53;22.52;;;;;;;8.07;100.00;102097.09;4911461;28;20062;-72
2022/01/10 10:53:36;;;;;;;37.15;21.27;;;;;;;8.38;100.00;102117.97;4922209;28;20106;-72
2022/01/10 10:56:04;;;;;;;35.97;19.25;;;;;;;8.59;100.00;102108.41;4908636;28;20507;-72
2022/01/10 10:58:31;;;;;;;39.53;21.88;;;;;;;8.88;100.00;102122.31;4922452;28;20034;-72
2022/01/10 11:00:57;;;;;;;30.08;19.20;;;;;;;8.92;100.00;102119.13;4919710;28;20529;-71
2022/01/10 11:03:23;;;;;;;31.88;17.77;;;;;;;9.09;100.00;102125.31;4912130;28;20062;-72
2022/01/10 11:05:54;;;;;;;29.20;18.63;;;;;;;9.32;100.00;102126.22;4924406;28;20039;-71
2022/01/10 11:08:20;;;;;;;29.95;17.08;;;;;;;8.73;100.00;102131.06;4920440;28;20073;-73
2022/01/10 11:10:46;;;;;;;33.60;19.65;;;;;;;8.93;100.00;102136.09;4929985;28;20042;-72
2022/01/10 11:13:13;;;;;;;29.25;18.13;;;;;;;8.86;100.00;102137.78;4927646;28;20065;-73